Time;durP1;ratioP1;P1;durP2;ratioP2;P2;SDS_P1;SDS_P2;PMS_P1;PMS_P2;Temp;Humidity;BMP_temperature;BMP_pressure;BME280_temperature;BME280_humidity;BME280_pressure;Samples;Min_cycle;Max_cycle;Signal;HPM_P1;HPM_P2
2021/09/02 00:01:43;;;;;;;9.97;5.77;;;15.40;99.90;;;;;;5012646;28;20281;-62
2021/09/02 00:04:12;;;;;;;12.50;6.30;;;15.40;99.90;;;;;;5020290;28;20245;-62
2021/09/02 00:06:40;;;;;;;11.00;5.83;;;15.30;99.90;;;;;;5014493;28;20316;-62
2021/09/02 00:09:08;;;;;;;11.53;7.27;;;15.30;99.90;;;;;;5017422;28;20693;-62
2021/09/02 00:11:37;;;;;;;13.47;5.70;;;15.20;99.90;;;;;;5018280;28;20704;-62
2021/09/02 00:14:06;;;;;;;11.13;5.67;;;15.20;99.90;;;;;;5020601;28;20621;-62
2021/09/02 00:16:34;;;;;;;11.27;6.63;;;15.30;99.90;;;;;;5022833;28;20325;-61
2021/09/02 00:19:02;;;;;;;12.90;6.17;;;15.30;99.90;;;;;;5019731;28;20857;-62
2021/09/02 00:21:30;;;;;;;11.93;5.97;;;15.20;99.90;;;;;;5014041;28;20306;-62
2021/09/02 00:23:58;;;;;;;8.53;6.03;;;15.20;99.90;;;;;;5023242;28;20229;-62
2021/09/02 00:26:26;;;;;;;8.00;5.33;;;15.30;99.90;;;;;;5019423;28;20331;-62
2021/09/02 00:28:56;;;;;;;6.83;5.77;;;15.20;99.90;;;;;;5018340;28;20246;-62
2021/09/02 00:31:24;;;;;;;7.83;5.60;;;15.20;99.90;;;;;;5018194;28;20240;-62
2021/09/02 00:33:52;;;;;;;10.53;5.97;;;15.10;99.90;;;;;;5013253;28;20243;-62
2021/09/02 00:36:20;;;;;;;10.97;6.40;;;15.20;99.90;;;;;;5019557;28;20318;-62
2021/09/02 00:38:48;;;;;;;10.10;6.47;;;15.10;99.90;;;;;;5013270;28;20244;-62
2021/09/02 00:41:16;;;;;;;10.43;6.77;;;15.30;99.90;;;;;;5021848;28;20316;-62
2021/09/02 00:43:44;;;;;;;9.27;6.50;;;15.10;99.90;;;;;;5018149;28;20241;-62
2021/09/02 00:46:15;;;;;;;8.63;6.30;;;15.00;99.90;;;;;;5019259;28;20298;-62
2021/09/02 00:48:45;;;;;;;10.57;6.37;;;14.90;99.90;;;;;;5011931;28;20236;-62
2021/09/02 00:51:15;;;;;;;10.27;6.10;;;14.90;99.90;;;;;;5017141;28;20269;-61
2021/09/02 00:53:43;;;;;;;8.77;6.17;;;14.90;99.90;;;;;;5025497;28;20558;-62
2021/09/02 00:56:12;;;;;;;10.20;6.60;;;14.90;99.90;;;;;;5018202;28;20371;-62
2021/09/02 00:58:41;;;;;;;10.57;6.67;;;15.00;99.90;;;;;;5014489;28;20229;-61
2021/09/02 01:01:11;;;;;;;10.20;6.47;;;14.90;99.90;;;;;;5016610;28;20362;-62
2021/09/02 01:03:41;;;;;;;12.40;5.97;;;14.90;99.90;;;;;;5011599;28;20244;-62
2021/09/02 01:06:12;;;;;;;12.90;6.07;;;15.00;99.90;;;;;;5008486;28;20240;-61
2021/09/02 01:08:40;;;;;;;11.90;6.87;;;15.00;99.90;;;;;;5020535;28;20229;-62
2021/09/02 01:11:08;;;;;;;11.30;6.20;;;14.90;99.90;;;;;;5018048;28;20839;-61
2021/09/02 01:13:38;;;;;;;11.03;6.63;;;14.90;99.90;;;;;;5008818;28;20236;-62
2021/09/02 01:16:06;;;;;;;9.17;6.03;;;14.80;99.90;;;;;;5016270;28;20235;-62
2021/09/02 01:18:34;;;;;;;9.30;6.47;;;14.80;99.90;;;;;;5015756;28;20886;-62
2021/09/02 01:21:05;;;;;;;8.93;6.50;;;14.70;99.90;;;;;;5017675;28;20236;-62
2021/09/02 01:23:37;;;;;;;8.47;5.87;;;14.80;99.90;;;;;;5017125;28;20264;-61
2021/09/02 01:26:14;;;;;;;15.00;6.30;;;14.80;99.90;;;;;;5025743;28;20294;-61
2021/09/02 01:28:42;;;;;;;11.73;6.60;;;14.80;99.90;;;;;;5025577;28;20328;-62
2021/09/02 01:31:12;;;;;;;8.90;6.30;;;14.80;99.90;;;;;;5010535;28;20224;-62
2021/09/02 01:33:44;;;;;;;9.63;6.83;;;14.80;99.90;;;;;;5026148;28;20239;-62
2021/09/02 01:36:13;;;;;;;9.13;6.70;;;14.80;99.90;;;;;;5016852;28;20276;-62
2021/09/02 01:38:43;;;;;;;14.90;7.40;;;14.90;99.90;;;;;;5020127;28;20451;-62
2021/09/02 01:41:11;;;;;;;9.13;7.03;;;14.90;99.90;;;;;;5014189;28;20271;-62
2021/09/02 01:43:39;;;;;;;10.97;7.17;;;14.90;99.90;;;;;;5018472;28;20664;-61
2021/09/02 01:46:07;;;;;;;8.87;6.70;;;14.90;99.90;;;;;;5012451;28;20546;-61
2021/09/02 01:48:37;;;;;;;11.17;7.57;;;14.90;99.90;;;;;;5022439;28;20290;-62
2021/09/02 01:51:05;;;;;;;10.10;6.63;;;15.00;99.90;;;;;;5007905;28;20479;-62
2021/09/02 01:53:33;;;;;;;10.20;6.87;;;15.00;99.90;;;;;;5020279;28;20812;-61
2021/09/02 01:56:03;;;;;;;10.23;6.77;;;14.90;99.90;;;;;;5015080;28;20312;-61
2021/09/02 01:58:31;;;;;;;9.57;7.33;;;15.00;99.90;;;;;;5012809;28;20236;-62
2021/09/02 02:00:59;;;;;;;11.03;7.00;;;15.00;99.90;;;;;;5025230;28;20243;-62
2021/09/02 02:03:28;;;;;;;9.47;7.47;;;14.90;99.90;;;;;;5016320;28;20590;-62
2021/09/02 02:05:56;;;;;;;11.30;7.57;;;14.90;99.90;;;;;;5014812;28;20264;-62
2021/09/02 02:08:24;;;;;;;10.13;7.40;;;15.00;99.90;;;;;;5024983;28;20731;-62
2021/09/02 02:10:52;;;;;;;11.77;7.63;;;15.00;99.90;;;;;;5023543;28;20245;-62
2021/09/02 02:13:21;;;;;;;12.23;8.47;;;14.90;99.90;;;;;;5020917;28;20243;-61
2021/09/02 02:15:49;;;;;;;9.57;7.17;;;14.90;99.90;;;;;;5021781;28;20244;-61
2021/09/02 02:18:17;;;;;;;8.77;7.80;;;14.90;99.90;;;;;;5010906;28;20376;-62
2021/09/02 02:20:46;;;;;;;12.17;7.57;;;14.90;99.90;;;;;;5017197;28;20237;-62
2021/09/02 02:23:14;;;;;;;12.20;8.50;;;14.80;99.90;;;;;;5017845;28;20264;-62
2021/09/02 02:25:42;;;;;;;11.33;7.60;;;14.70;99.90;;;;;;5021442;28;20254;-61
2021/09/02 02:28:10;;;;;;;10.23;8.03;;;14.80;99.90;;;;;;5026755;28;20236;-62
2021/09/02 02:30:39;;;;;;;10.80;8.13;;;14.70;99.90;;;;;;5022148;28;20588;-62
2021/09/02 02:33:07;;;;;;;9.67;8.23;;;14.80;99.90;;;;;;5024349;28;20261;-62
2021/09/02 02:35:35;;;;;;;12.47;8.57;;;14.90;99.90;;;;;;5020403;28;20247;-62
2021/09/02 02:38:03;;;;;;;10.37;7.90;;;14.70;99.90;;;;;;5019711;28;20256;-61
2021/09/02 02:40:32;;;;;;;11.80;8.43;;;14.60;99.90;;;;;;5016918;28;20663;-61
2021/09/02 02:43:00;;;;;;;10.43;8.40;;;14.60;99.90;;;;;;5023438;28;20322;-62
2021/09/02 02:45:28;;;;;;;15.23;9.07;;;14.60;99.90;;;;;;5027184;28;20236;-61
2021/09/02 02:47:57;;;;;;;11.87;8.63;;;14.50;99.90;;;;;;5021330;28;20660;-61
2021/09/02 02:50:25;;;;;;;12.90;9.50;;;14.50;99.90;;;;;;5024633;28;20239;-62
2021/09/02 02:52:53;;;;;;;10.37;8.27;;;14.60;99.90;;;;;;5024684;28;20240;-62
2021/09/02 02:55:22;;;;;;;11.80;8.33;;;14.60;99.90;;;;;;5027566;28;20739;-62
2021/09/02 02:57:50;;;;;;;11.30;8.53;;;14.60;99.90;;;;;;5024857;28;20267;-62
2021/09/02 03:00:19;;;;;;;10.40;8.37;;;14.50;99.90;;;;;;5022165;28;20240;-62
2021/09/02 03:02:47;;;;;;;11.60;9.00;;;14.50;99.90;;;;;;5022599;28;20248;-61
2021/09/02 03:05:17;;;;;;;11.40;8.60;;;14.60;99.90;;;;;;5019943;28;20777;-62
2021/09/02 03:07:45;;;;;;;11.17;8.73;;;14.40;99.90;;;;;;5019016;28;20262;-62
2021/09/02 03:10:13;;;;;;;11.87;9.23;;;14.40;99.90;;;;;;5015275;28;20228;-62
2021/09/02 03:12:41;;;;;;;11.30;8.80;;;14.40;99.90;;;;;;5018838;28;20236;-61
2021/09/02 03:15:10;;;;;;;10.97;8.80;;;14.40;99.90;;;;;;5020814;28;20228;-62
2021/09/02 03:17:38;;;;;;;11.80;9.90;;;14.40;99.90;;;;;;5024159;28;20324;-61
2021/09/02 03:20:07;;;;;;;13.93;9.67;;;14.30;99.90;;;;;;5022429;28;20254;-62
2021/09/02 03:22:37;;;;;;;11.93;10.07;;;14.40;99.90;;;;;;5023621;28;20310;-61
2021/09/02 03:25:06;;;;;;;12.20;10.13;;;14.30;99.90;;;;;;5023655;28;20237;-61
2021/09/02 03:27:35;;;;;;;13.50;9.77;;;14.30;99.90;;;;;;5027112;28;20232;-61
2021/09/02 03:30:05;;;;;;;12.93;10.00;;;14.30;99.90;;;;;;5024199;28;20228;-61
2021/09/02 03:32:33;;;;;;;14.53;10.57;;;14.30;99.90;;;;;;5021756;28;20328;-61
2021/09/02 03:35:01;;;;;;;14.93;10.43;;;14.30;99.90;;;;;;5022223;28;20236;-61
2021/09/02 03:37:30;;;;;;;11.67;9.57;;;14.30;99.90;;;;;;5016688;28;20237;-61
2021/09/02 03:39:59;;;;;;;12.93;9.87;;;14.40;99.90;;;;;;5062083;28;20238;-61
2021/09/02 03:42:27;;;;;;;12.60;10.03;;;14.40;99.90;;;;;;5051783;28;20314;-61
2021/09/02 03:44:55;;;;;;;11.63;9.57;;;14.30;99.90;;;;;;5057894;28;20595;-62
2021/09/02 03:47:24;;;;;;;12.27;10.07;;;14.40;99.90;;;;;;5055478;28;20263;-62
2021/09/02 03:49:52;;;;;;;16.77;11.60;;;14.30;99.90;;;;;;5061349;28;20239;-61
2021/09/02 03:52:20;;;;;;;13.93;10.43;;;14.30;99.90;;;;;;5053513;28;20785;-61
2021/09/02 03:54:48;;;;;;;13.53;10.23;;;14.20;99.90;;;;;;5052178;28;20235;-61
2021/09/02 03:57:17;;;;;;;12.47;10.40;;;14.20;99.90;;;;;;5056810;28;20725;-61
2021/09/02 03:59:45;;;;;;;13.77;10.60;;;14.10;99.90;;;;;;5060089;28;20244;-62
2021/09/02 04:02:13;;;;;;;15.30;10.53;;;14.10;99.90;;;;;;5051505;28;20259;-62
2021/09/02 04:04:42;;;;;;;15.90;10.47;;;14.10;99.90;;;;;;5055580;28;20633;-61
2021/09/02 04:07:10;;;;;;;13.40;10.90;;;14.10;99.90;;;;;;5053644;28;20296;-61
2021/09/02 04:09:38;;;;;;;13.87;10.97;;;14.10;99.90;;;;;;5048264;28;20235;-62
2021/09/02 04:12:06;;;;;;;13.57;9.93;;;14.10;99.90;;;;;;5051160;28;20285;-61
2021/09/02 04:14:36;;;;;;;16.37;11.03;;;14.20;99.90;;;;;;5058973;28;20718;-62
2021/09/02 04:17:04;;;;;;;12.10;10.03;;;14.20;99.90;;;;;;5054920;28;20332;-62
2021/09/02 04:19:32;;;;;;;14.20;10.20;;;14.30;99.90;;;;;;5054556;28;20246;-61
2021/09/02 04:22:01;;;;;;;15.70;10.37;;;14.20;99.90;;;;;;5052623;28;20239;-62
2021/09/02 04:24:29;;;;;;;15.87;10.77;;;14.20;99.90;;;;;;5049743;28;20254;-62
2021/09/02 04:26:57;;;;;;;14.20;10.13;;;14.30;99.90;;;;;;5056943;28;20262;-62
2021/09/02 04:29:25;;;;;;;12.50;9.93;;;14.40;99.90;;;;;;5057776;28;20270;-61
2021/09/02 04:31:55;;;;;;;14.27;10.77;;;14.20;99.90;;;;;;5058439;28;20257;-62
2021/09/02 04:34:23;;;;;;;16.00;10.23;;;14.30;99.90;;;;;;5048118;28;20683;-61
2021/09/02 04:36:51;;;;;;;13.93;10.43;;;14.30;99.90;;;;;;5049602;28;20236;-62
2021/09/02 04:39:19;;;;;;;12.30;10.37;;;14.30;99.90;;;;;;5047801;28;20718;-61
2021/09/02 04:41:47;;;;;;;15.90;10.67;;;14.30;99.90;;;;;;5054831;28;20227;-61
2021/09/02 04:44:15;;;;;;;14.40;9.77;;;14.20;99.90;;;;;;5055010;28;20232;-61
2021/09/02 04:46:43;;;;;;;18.13;11.00;;;14.20;99.90;;;;;;5053032;28;20254;-61
2021/09/02 04:49:13;;;;;;;15.10;10.27;;;14.20;99.90;;;;;;5045857;28;20259;-62
2021/09/02 04:51:41;;;;;;;12.70;9.47;;;14.20;99.90;;;;;;5043157;28;20315;-61
2021/09/02 04:54:09;;;;;;;12.30;10.03;;;14.20;99.90;;;;;;5053230;28;20641;-61
2021/09/02 04:56:37;;;;;;;15.87;9.77;;;14.10;99.90;;;;;;5052658;28;20231;-61
2021/09/02 04:59:05;;;;;;;14.30;10.17;;;14.30;99.90;;;;;;5049364;28;20758;-61
2021/09/02 05:01:33;;;;;;;15.50;10.23;;;14.30;99.90;;;;;;5044704;28;20244;-61
2021/09/02 05:04:02;;;;;;;14.57;10.57;;;14.40;99.90;;;;;;5053042;28;20740;-61
2021/09/02 05:06:31;;;;;;;15.60;10.00;;;14.40;99.90;;;;;;5050525;28;20228;-61
2021/09/02 05:09:00;;;;;;;12.77;9.87;;;14.30;99.90;;;;;;5028117;28;20320;-61
2021/09/02 05:11:28;;;;;;;13.73;9.03;;;14.20;99.90;;;;;;5026467;28;20256;-61
2021/09/02 05:13:56;;;;;;;15.30;9.40;;;14.30;99.90;;;;;;5025627;28;20323;-61
2021/09/02 05:16:24;;;;;;;16.20;9.90;;;14.30;99.90;;;;;;5026248;28;20237;-61
2021/09/02 05:18:52;;;;;;;12.40;9.67;;;14.20;99.90;;;;;;5029377;28;20585;-61
2021/09/02 05:21:20;;;;;;;13.83;9.50;;;14.20;99.90;;;;;;5023956;28;20236;-61
2021/09/02 05:23:50;;;;;;;12.33;9.57;;;14.20;99.90;;;;;;5022915;28;20263;-62
2021/09/02 05:26:18;;;;;;;14.93;9.33;;;14.20;99.90;;;;;;5024724;28;20232;-61
2021/09/02 05:28:46;;;;;;;11.37;9.20;;;14.20;99.90;;;;;;5024097;28;20322;-61
2021/09/02 05:31:14;;;;;;;12.33;9.10;;;14.10;99.90;;;;;;5018162;28;20227;-61
2021/09/02 05:33:42;;;;;;;10.97;8.70;;;14.20;99.90;;;;;;5014100;28;20233;-61
2021/09/02 05:36:10;;;;;;;12.50;9.13;;;14.20;99.90;;;;;;5018478;28;20226;-61
2021/09/02 05:38:39;;;;;;;15.53;9.60;;;14.20;99.90;;;;;;5017251;28;20320;-61
2021/09/02 05:41:08;;;;;;;15.00;9.50;;;14.20;99.90;;;;;;5022626;28;20229;-61
2021/09/02 05:43:36;;;;;;;10.83;8.47;;;14.20;99.90;;;;;;5020809;28;20317;-61
2021/09/02 05:46:05;;;;;;;11.53;8.43;;;14.20;99.90;;;;;;5024218;28;20243;-61
2021/09/02 05:48:33;;;;;;;11.37;9.13;;;14.20;99.90;;;;;;5023949;28;20704;-61
2021/09/02 05:51:03;;;;;;;12.80;8.57;;;14.30;99.90;;;;;;5022247;28;20239;-62
2021/09/02 05:53:31;;;;;;;14.10;9.43;;;14.30;99.90;;;;;;5014092;28;20240;-61
2021/09/02 05:55:59;;;;;;;11.20;8.73;;;14.30;99.90;;;;;;5018921;28;20237;-61
2021/09/02 05:58:28;;;;;;;9.47;8.40;;;14.30;99.90;;;;;;5023006;28;20705;-61
2021/09/02 06:00:56;;;;;;;10.83;8.63;;;14.30;99.90;;;;;;5018227;28;20248;-61
2021/09/02 06:03:27;;;;;;;11.87;9.27;;;14.40;99.90;;;;;;5024479;28;20315;-61
2021/09/02 06:05:56;;;;;;;13.90;8.60;;;14.40;99.90;;;;;;5025917;28;20629;-61
2021/09/02 06:08:24;;;;;;;11.03;8.63;;;14.40;99.90;;;;;;5024025;28;20232;-61
2021/09/02 06:10:52;;;;;;;10.23;8.37;;;14.50;99.90;;;;;;5029879;28;20811;-61
2021/09/02 06:13:20;;;;;;;10.17;7.93;;;14.50;99.90;;;;;;5027827;28;20233;-61
2021/09/02 06:15:50;;;;;;;13.83;8.73;;;14.60;99.90;;;;;;5028733;28;20363;-61
2021/09/02 06:18:18;;;;;;;11.23;8.40;;;14.60;99.90;;;;;;5021719;28;20291;-61
2021/09/02 06:20:46;;;;;;;11.00;8.53;;;14.70;99.90;;;;;;5022207;28;20327;-61
2021/09/02 06:23:14;;;;;;;11.23;8.30;;;14.80;99.90;;;;;;5020880;28;20265;-62
2021/09/02 06:25:42;;;;;;;9.47;7.90;;;14.80;99.90;;;;;;5029629;28;20228;-61
2021/09/02 06:28:11;;;;;;;12.83;8.50;;;14.90;99.90;;;;;;5024521;28;20240;-61
2021/09/02 06:30:40;;;;;;;11.77;8.37;;;15.00;99.90;;;;;;5029315;28;20242;-61
2021/09/02 06:33:09;;;;;;;10.17;7.73;;;15.00;99.90;;;;;;5020530;28;20243;-62
2021/09/02 06:35:38;;;;;;;10.60;7.53;;;15.10;99.90;;;;;;5022501;28;20240;-61
2021/09/02 06:38:06;;;;;;;13.03;7.80;;;15.20;99.90;;;;;;5023200;28;20371;-62
2021/09/02 06:40:34;;;;;;;12.03;9.20;;;15.20;99.90;;;;;;5026106;28;20240;-62
2021/09/02 06:43:03;;;;;;;12.03;8.00;;;15.30;99.90;;;;;;5026105;28;20774;-61
2021/09/02 06:45:31;;;;;;;9.67;8.13;;;15.30;99.90;;;;;;5026719;28;20232;-61
2021/09/02 06:47:59;;;;;;;11.43;7.70;;;15.40;99.90;;;;;;5025822;28;20237;-61
2021/09/02 06:50:29;;;;;;;12.03;8.20;;;15.50;99.90;;;;;;5023277;28;20688;-61
2021/09/02 06:52:57;;;;;;;11.83;8.60;;;15.50;99.90;;;;;;5022511;28;20625;-61
2021/09/02 06:55:25;;;;;;;12.17;8.63;;;15.70;99.90;;;;;;5025237;28;20239;-61
2021/09/02 06:57:53;;;;;;;11.10;7.97;;;15.90;99.90;;;;;;5020908;28;20360;-61
2021/09/02 07:00:21;;;;;;;11.10;7.73;;;16.00;99.90;;;;;;5023865;28;20221;-61
2021/09/02 07:02:49;;;;;;;10.77;7.80;;;16.10;99.90;;;;;;5024996;28;20327;-62
2021/09/02 07:05:18;;;;;;;13.37;8.43;;;16.10;99.90;;;;;;5027781;28;20240;-61
2021/09/02 07:07:47;;;;;;;10.37;8.00;;;16.10;99.90;;;;;;5020130;28;20324;-62
2021/09/02 07:10:35;;;;;;;10.93;7.87;;;16.10;99.90;;;;;;5045851;28;20327;-61
2021/09/02 07:13:04;;;;;;;10.57;7.73;;;16.10;99.90;;;;;;5028161;28;20745;-62
2021/09/02 07:15:32;;;;;;;12.57;8.27;;;16.20;99.90;;;;;;5028377;28;20233;-61
2021/09/02 07:18:00;;;;;;;11.80;7.93;;;16.30;99.90;;;;;;5028948;28;20229;-61
2021/09/02 07:20:28;;;;;;;11.73;8.17;;;16.40;99.90;;;;;;5042718;28;20244;-61
2021/09/02 07:22:59;;;;;;;12.03;8.43;;;16.40;99.90;;;;;;5026787;28;20234;-61
2021/09/02 07:25:27;;;;;;;11.13;8.17;;;16.40;99.90;;;;;;5023671;28;20233;-61
2021/09/02 07:27:55;;;;;;;9.77;8.40;;;16.50;99.90;;;;;;5018706;28;20245;-61
2021/09/02 07:30:24;;;;;;;14.53;8.47;;;16.60;99.90;;;;;;5023217;28;20305;-61
2021/09/02 07:32:52;;;;;;;12.20;8.43;;;16.60;99.90;;;;;;5024392;28;20240;-61
2021/09/02 07:35:21;;;;;;;12.40;8.40;;;16.70;99.90;;;;;;5007520;28;20733;-62
2021/09/02 07:37:49;;;;;;;13.57;8.10;;;16.70;99.90;;;;;;5004514;28;20251;-62
2021/09/02 07:40:18;;;;;;;13.87;8.80;;;16.80;99.90;;;;;;4999261;28;20248;-62
2021/09/02 07:42:46;;;;;;;13.50;8.70;;;16.80;99.90;;;;;;4997629;28;20244;-62
2021/09/02 07:45:14;;;;;;;11.60;8.43;;;16.80;99.90;;;;;;5010496;28;20324;-62
2021/09/02 07:47:43;;;;;;;10.80;7.93;;;16.80;99.90;;;;;;5019234;28;20245;-62
2021/09/02 07:50:18;;;;;;;13.23;8.57;;;16.80;99.90;;;;;;5021430;28;21072;-61
2021/09/02 07:52:47;;;;;;;10.87;8.03;;;16.90;99.90;;;;;;5018689;28;20582;-61
2021/09/02 07:55:19;;;;;;;11.80;8.10;;;16.90;99.90;;;;;;5014061;28;20359;-62
2021/09/02 07:57:48;;;;;;;12.23;7.97;;;17.10;99.90;;;;;;5020691;28;20236;-62
2021/09/02 08:00:19;;;;;;;14.23;8.47;;;17.10;99.90;;;;;;5017665;28;20243;-62
2021/09/02 08:02:49;;;;;;;12.40;8.87;;;17.20;99.90;;;;;;5025123;28;20301;-62
2021/09/02 08:05:20;;;;;;;12.93;8.30;;;17.20;99.90;;;;;;5024538;28;20375;-62
2021/09/02 08:07:51;;;;;;;14.10;8.30;;;17.20;99.90;;;;;;5018077;28;20318;-62
2021/09/02 08:10:25;;;;;;;13.63;9.43;;;17.20;99.90;;;;;;5022997;28;20298;-62
2021/09/02 08:12:57;;;;;;;12.53;9.33;;;17.30;99.90;;;;;;5020896;28;20234;-62
2021/09/02 08:15:27;;;;;;;13.67;8.93;;;17.30;99.90;;;;;;5013192;28;20253;-61
2021/09/02 08:17:58;;;;;;;14.80;9.87;;;17.40;99.90;;;;;;5021517;28;21330;-62
2021/09/02 08:20:27;;;;;;;14.73;9.03;;;17.40;99.90;;;;;;5019931;28;20294;-61
2021/09/02 08:22:56;;;;;;;16.77;10.47;;;17.50;99.90;;;;;;5023931;28;20302;-61
2021/09/02 08:25:26;;;;;;;13.83;9.07;;;17.60;99.90;;;;;;5022077;28;20535;-62
2021/09/02 08:27:55;;;;;;;13.80;8.60;;;17.70;99.90;;;;;;5023993;28;20304;-62
2021/09/02 08:30:26;;;;;;;16.57;9.17;;;17.80;99.90;;;;;;5020640;28;20246;-62
2021/09/02 08:32:54;;;;;;;15.47;9.50;;;17.90;99.90;;;;;;5019231;28;20815;-61
2021/09/02 08:35:25;;;;;;;18.47;9.03;;;18.00;99.90;;;;;;5025876;28;20341;-61
2021/09/02 08:37:56;;;;;;;13.27;9.63;;;18.20;99.90;;;;;;5023136;28;20239;-61
2021/09/02 08:40:27;;;;;;;15.87;10.60;;;18.30;99.90;;;;;;5022673;28;20237;-61
2021/09/02 08:42:56;;;;;;;15.57;9.10;;;18.40;99.90;;;;;;5021362;28;20241;-62
2021/09/02 08:45:25;;;;;;;13.33;8.63;;;18.40;99.90;;;;;;5021131;28;20244;-61
2021/09/02 08:47:54;;;;;;;15.67;9.23;;;18.50;99.90;;;;;;5015617;28;20336;-62
2021/09/02 08:50:24;;;;;;;15.10;9.03;;;18.50;99.90;;;;;;5013550;28;20246;-62
2021/09/02 08:52:54;;;;;;;12.73;8.30;;;18.70;99.90;;;;;;5019526;28;20575;-62
2021/09/02 08:55:22;;;;;;;15.07;9.30;;;18.70;99.90;;;;;;5026523;28;20246;-62
2021/09/02 08:57:53;;;;;;;15.27;9.13;;;18.70;99.90;;;;;;5020718;28;20742;-62
2021/09/02 09:00:23;;;;;;;16.83;9.10;;;18.70;99.90;;;;;;5019296;28;20341;-61
2021/09/02 09:02:57;;;;;;;13.47;8.70;;;18.60;99.90;;;;;;5022958;28;20242;-61
2021/09/02 09:05:27;;;;;;;13.17;7.63;;;18.70;99.90;;;;;;5021254;28;20627;-61
2021/09/02 09:07:56;;;;;;;20.07;8.50;;;18.80;99.90;;;;;;5018831;28;20251;-62
2021/09/02 09:10:26;;;;;;;15.93;8.00;;;18.90;99.90;;;;;;5019388;28;20246;-62
2021/09/02 09:12:58;;;;;;;13.40;7.53;;;19.00;99.90;;;;;;5021736;28;20235;-61
2021/09/02 09:15:28;;;;;;;13.93;7.70;;;19.10;99.90;;;;;;5014124;28;20349;-62
2021/09/02 09:18:13;;;;;;;12.50;7.33;;;19.20;99.90;;;;;;5028390;28;20242;-61
2021/09/02 09:20:41;;;;;;;17.30;7.83;;;19.40;99.90;;;;;;5021135;28;20250;-62
2021/09/02 09:23:09;;;;;;;14.70;7.63;;;19.50;99.90;;;;;;5024912;28;20239;-62
2021/09/02 09:25:38;;;;;;;14.90;7.30;;;19.50;99.90;;;;;;5020226;28;20397;-61
2021/09/02 09:28:07;;;;;;;13.07;7.10;;;19.70;99.90;;;;;;5017517;28;20236;-61
2021/09/02 09:30:38;;;;;;;13.10;6.70;;;19.90;99.90;;;;;;4997576;28;20247;-61
2021/09/02 09:33:11;;;;;;;14.83;7.40;;;20.00;99.90;;;;;;5006708;28;20243;-62
2021/09/02 09:35:42;;;;;;;11.43;7.23;;;20.00;99.90;;;;;;5005399;28;20256;-62
2021/09/02 09:38:14;;;;;;;11.13;6.50;;;20.00;99.90;;;;;;5005373;28;20247;-62
2021/09/02 09:40:44;;;;;;;14.07;6.30;;;19.90;99.90;;;;;;5001593;28;20278;-62
2021/09/02 09:43:16;;;;;;;11.57;6.40;;;19.90;99.90;;;;;;5011621;28;20247;-61
2021/09/02 09:45:47;;;;;;;13.30;5.20;;;19.90;99.90;;;;;;5011697;28;20244;-61
2021/09/02 09:48:37;;;;;;;10.00;6.00;;;19.90;99.90;;;;;;5006077;28;20240;-61
2021/09/02 09:51:07;;;;;;;13.67;6.40;;;19.80;99.90;;;;;;5005533;28;20259;-62
2021/09/02 09:53:36;;;;;;;13.30;6.27;;;19.70;99.90;;;;;;5010383;28;20596;-61
2021/09/02 09:56:05;;;;;;;10.63;5.97;;;19.60;99.90;;;;;;5012435;28;20244;-62
2021/09/02 09:58:35;;;;;;;8.73;5.70;;;19.50;99.90;;;;;;4998662;28;20235;-61
2021/09/02 10:01:05;;;;;;;9.47;5.90;;;19.50;99.90;;;;;;5006874;28;20252;-61
2021/09/02 10:03:34;;;;;;;10.60;5.63;;;19.50;99.90;;;;;;5000376;28;20313;-62
2021/09/02 10:06:05;;;;;;;9.20;5.47;;;19.60;99.90;;;;;;5003898;28;20244;-61
2021/09/02 10:08:35;;;;;;;13.40;5.83;;;19.70;99.90;;;;;;5001770;28;20310;-61
2021/09/02 10:11:05;;;;;;;9.73;5.53;;;19.70;99.90;;;;;;4997065;28;20254;-61
2021/09/02 10:13:35;;;;;;;11.60;5.80;;;19.80;99.90;;;;;;4993440;28;20259;-62
2021/09/02 10:16:04;;;;;;;8.47;5.57;;;19.80;99.90;;;;;;5008073;28;20228;-61
2021/09/02 10:18:36;;;;;;;10.97;5.70;;;19.80;99.90;;;;;;5005564;28;20243;-61
2021/09/02 10:21:07;;;;;;;10.57;5.40;;;19.80;99.90;;;;;;5003440;28;20270;-61
2021/09/02 10:23:35;;;;;;;10.37;5.20;;;19.90;99.90;;;;;;5004643;28;20709;-61
2021/09/02 10:26:04;;;;;;;10.43;5.30;;;19.70;99.90;;;;;;5006065;28;20244;-61
2021/09/02 10:28:35;;;;;;;11.67;5.17;;;19.50;99.90;;;;;;5007405;28;20250;-62
2021/09/02 10:31:05;;;;;;;13.20;5.77;;;19.50;99.90;;;;;;4997802;28;20254;-61
2021/09/02 10:33:41;;;;;;;10.80;6.10;;;19.60;99.90;;;;;;5002120;28;20245;-61
2021/09/02 10:36:40;;;;;;;9.73;5.93;;;19.60;99.90;;;;;;5007501;28;21261;-61
2021/09/02 10:39:08;;;;;;;10.30;5.20;;;19.70;99.90;;;;;;5006550;28;20248;-61
2021/09/02 10:41:48;;;;;;;9.63;5.30;;;19.60;99.90;;;;;;5003392;28;20958;-61
2021/09/02 10:44:20;;;;;;;11.50;5.73;;;19.70;99.90;;;;;;5002238;28;20799;-61
2021/09/02 10:46:53;;;;;;;12.50;5.57;;;19.60;99.90;;;;;;5002158;28;20248;-61
2021/09/02 10:49:27;;;;;;;10.37;5.37;;;19.60;99.90;;;;;;5008112;28;20736;-61
2021/09/02 10:52:02;;;;;;;12.73;5.23;;;19.60;99.90;;;;;;5004657;28;21086;-62
2021/09/02 10:54:34;;;;;;;8.93;5.00;;;19.60;99.90;;;;;;4994831;28;20252;-62
2021/09/02 10:57:08;;;;;;;11.03;4.93;;;19.70;99.90;;;;;;5004914;28;20240;-61
2021/09/02 10:59:46;;;;;;;10.90;5.23;;;19.70;99.90;;;;;;4998634;28;20543;-61
2021/09/02 11:02:43;;;;;;;11.53;5.30;;;19.70;99.90;;;;;;5001279;28;20244;-62
2021/09/02 11:05:15;;;;;;;9.43;4.70;;;19.80;99.90;;;;;;5007987;28;20785;-61
2021/09/02 11:07:45;;;;;;;9.70;4.77;;;19.80;99.90;;;;;;5007441;28;20246;-61
2021/09/02 11:10:16;;;;;;;9.37;5.17;;;19.90;99.90;;;;;;5001327;28;20358;-62
2021/09/02 11:12:45;;;;;;;11.33;5.70;;;20.00;99.90;;;;;;5002976;28;20245;-62
2021/09/02 11:15:22;;;;;;;12.27;5.80;;;19.90;99.90;;;;;;4997499;28;20652;-61
2021/09/02 11:17:55;;;;;;;12.33;5.70;;;19.80;99.90;;;;;;5001459;28;20734;-61
2021/09/02 11:20:43;;;;;;;10.63;5.10;;;19.70;99.90;;;;;;4994306;28;20240;-61
2021/09/02 11:23:13;;;;;;;10.73;5.40;;;19.70;99.90;;;;;;4994344;28;20233;-61
2021/09/02 11:25:43;;;;;;;11.27;5.97;;;19.60;99.90;;;;;;5004946;28;20317;-62
2021/09/02 11:28:12;;;;;;;10.07;5.40;;;19.50;99.90;;;;;;5001544;28;20233;-61
2021/09/02 11:30:42;;;;;;;10.30;5.37;;;19.60;99.90;;;;;;5000407;28;20247;-61
2021/09/02 11:33:10;;;;;;;10.00;5.00;;;19.50;99.90;;;;;;5000346;28;20245;-62
2021/09/02 11:35:38;;;;;;;10.10;5.63;;;19.50;99.90;;;;;;5008493;28;20800;-61
2021/09/02 11:38:06;;;;;;;9.13;4.87;;;19.70;99.90;;;;;;5002774;28;20252;-61
2021/09/02 11:40:36;;;;;;;10.80;5.50;;;19.70;99.90;;;;;;5002969;28;20330;-61
2021/09/02 11:43:05;;;;;;;8.23;5.27;;;19.70;99.90;;;;;;5003140;28;20707;-62
2021/09/02 11:45:35;;;;;;;13.27;5.27;;;19.80;99.90;;;;;;5004878;28;20243;-62
2021/09/02 11:48:06;;;;;;;12.87;5.97;;;19.80;99.90;;;;;;5004849;28;20320;-61
2021/09/02 11:50:35;;;;;;;9.03;5.17;;;19.70;99.90;;;;;;5003282;28;20241;-61
2021/09/02 11:53:03;;;;;;;8.93;5.30;;;19.50;99.90;;;;;;5003194;28;20244;-62
2021/09/02 11:55:33;;;;;;;9.60;5.53;;;19.50;99.90;;;;;;5006146;28;20334;-61
2021/09/02 11:58:04;;;;;;;9.50;5.30;;;19.50;99.90;;;;;;5006282;28;20240;-61
2021/09/02 12:00:34;;;;;;;12.57;5.60;;;19.50;99.90;;;;;;5003555;28;20310;-61
2021/09/02 12:03:05;;;;;;;10.97;6.10;;;19.50;99.90;;;;;;5006643;28;20235;-61
2021/09/02 12:05:38;;;;;;;9.67;5.17;;;19.70;99.90;;;;;;5004965;28;20630;-61
2021/09/02 12:08:09;;;;;;;10.00;5.57;;;19.80;99.90;;;;;;4997918;28;20244;-62
2021/09/02 12:10:38;;;;;;;9.33;5.67;;;19.80;99.90;;;;;;5000162;28;20429;-61
2021/09/02 12:13:35;;;;;;;7.40;5.40;;;19.90;99.90;;;;;;4992262;28;20317;-61
2021/09/02 12:16:08;;;;;;;11.83;5.43;;;20.00;99.90;;;;;;4993534;28;20323;-61
2021/09/02 12:18:39;;;;;;;8.53;4.97;;;20.20;99.90;;;;;;5003310;28;20251;-62
2021/09/02 12:21:15;;;;;;;7.20;4.73;;;20.40;99.90;;;;;;5001259;28;20252;-62
2021/09/02 12:23:49;;;;;;;9.97;5.50;;;20.50;99.90;;;;;;5006206;28;20343;-61
2021/09/02 12:26:19;;;;;;;10.53;5.63;;;20.60;99.90;;;;;;5004627;28;20331;-61
2021/09/02 12:28:49;;;;;;;10.33;5.23;;;20.60;99.90;;;;;;5008501;28;20248;-61
2021/09/02 12:31:22;;;;;;;12.63;5.27;;;20.70;99.90;;;;;;5000702;28;20236;-61
2021/09/02 12:34:06;;;;;;;11.80;5.63;;;20.70;99.90;;;;;;5006904;28;20275;-61
2021/09/02 12:36:36;;;;;;;9.90;5.37;;;20.70;99.90;;;;;;5008630;28;20262;-61
2021/09/02 12:39:19;;;;;;;11.63;5.93;;;20.70;99.90;;;;;;5006409;28;20235;-62
2021/09/02 12:41:49;;;;;;;11.03;5.43;;;20.70;99.90;;;;;;5011200;28;20328;-61
2021/09/02 12:44:23;;;;;;;10.23;5.97;;;20.70;99.90;;;;;;4994311;28;20751;-61
2021/09/02 12:46:56;;;;;;;11.80;6.10;;;20.50;99.90;;;;;;5005052;28;20328;-62
2021/09/02 12:49:27;;;;;;;10.57;5.90;;;20.50;99.90;;;;;;4996916;28;20347;-61
2021/09/02 12:52:00;;;;;;;10.70;6.07;;;20.60;99.90;;;;;;5001673;28;20244;-61